Time;durP1;ratioP1;P1;durP2;ratioP2;P2;SDS_P1;SDS_P2;PMS_P1;PMS_P2;Temp;Humidity;BMP_temperature;BMP_pressure;BME280_temperature;BME280_humidity;BME280_pressure;Samples;Min_cycle;Max_cycle;Signal;HPM_P1;HPM_P2
2023/08/04 00:01:58;;;;;;;18.30;6.93;;;;;;;13.92;100.00;100947.69;5030496;28;20030;-82
2023/08/04 00:04:24;;;;;;;18.73;6.95;;;;;;;13.89;100.00;100942.66;5043418;28;20027;-81
2023/08/04 00:06:49;;;;;;;14.10;7.43;;;;;;;13.84;100.00;100939.59;5050136;28;20109;-82
2023/08/04 00:09:16;;;;;;;18.38;7.43;;;;;;;13.81;100.00;100943.34;5050287;28;20087;-81
2023/08/04 00:11:42;;;;;;;17.55;6.45;;;;;;;13.79;100.00;100947.91;5049806;28;20444;-82
2023/08/04 00:14:10;;;;;;;16.73;7.05;;;;;;;13.78;100.00;100951.53;5050550;28;20027;-82
2023/08/04 00:16:35;;;;;;;15.75;6.85;;;;;;;13.72;100.00;100952.91;5033006;28;20049;-82
2023/08/04 00:19:00;;;;;;;19.55;8.00;;;;;;;13.68;100.00;100956.78;5012141;28;20458;-82
2023/08/04 00:21:26;;;;;;;16.58;7.07;;;;;;;13.71;100.00;100956.50;5009706;28;20022;-82
2023/08/04 00:23:58;;;;;;;18.73;7.00;;;;;;;13.69;100.00;100963.75;5011462;28;20068;-82
2023/08/04 00:26:23;;;;;;;18.20;7.70;;;;;;;13.63;100.00;100948.41;5048991;28;20029;-82
2023/08/04 00:28:49;;;;;;;17.08;7.60;;;;;;;13.60;100.00;100959.22;5036801;28;20021;-82
2023/08/04 00:31:14;;;;;;;16.25;7.22;;;;;;;13.60;100.00;100958.38;5038273;28;20084;-82
2023/08/04 00:33:40;;;;;;;16.88;7.47;;;;;;;13.57;100.00;100964.75;5026389;28;20036;-82
2023/08/04 00:36:05;;;;;;;17.58;7.75;;;;;;;13.56;100.00;100962.25;5042754;28;20017;-81
2023/08/04 00:38:31;;;;;;;15.35;7.60;;;;;;;13.52;100.00;100969.59;5040126;28;20052;-82
2023/08/04 00:40:56;;;;;;;16.40;7.72;;;;;;;13.49;100.00;100967.22;5042546;28;20021;-82
2023/08/04 00:43:21;;;;;;;15.85;7.70;;;;;;;13.48;100.00;100971.66;5040384;28;20112;-82
2023/08/04 00:45:47;;;;;;;22.08;8.18;;;;;;;13.41;100.00;100967.88;5042893;28;20041;-82
2023/08/04 00:48:13;;;;;;;22.55;8.25;;;;;;;13.39;100.00;100972.44;5035441;28;20029;-81
2023/08/04 00:50:39;;;;;;;14.63;7.20;;;;;;;13.38;100.00;100975.22;5045521;28;20401;-82
2023/08/04 00:53:05;;;;;;;16.95;8.10;;;;;;;13.35;100.00;100971.03;5025946;28;20587;-82
2023/08/04 00:55:32;;;;;;;15.65;7.72;;;;;;;13.33;100.00;100980.06;5037372;28;20029;-82
2023/08/04 00:57:58;;;;;;;15.98;7.70;;;;;;;13.28;100.00;100976.97;5033544;28;20450;-82
2023/08/04 01:00:23;;;;;;;18.48;8.07;;;;;;;13.28;100.00;100974.31;5027893;28;20052;-81
2023/08/04 01:02:49;;;;;;;19.77;8.32;;;;;;;13.27;100.00;100985.84;5029424;28;20035;-82
2023/08/04 01:05:15;;;;;;;19.35;8.60;;;;;;;13.26;100.00;100992.09;5029532;28;20021;-81
2023/08/04 01:07:59;;;;;;;20.60;8.23;;;;;;;13.26;100.00;100992.94;5055090;28;20079;-81
2023/08/04 01:10:35;;;;;;;22.80;8.18;;;;;;;13.17;100.00;100994.50;5009819;28;20026;-81
2023/08/04 01:13:04;;;;;;;18.20;8.98;;;;;;;13.21;100.00;100997.78;5009101;28;20890;-82
2023/08/04 01:15:30;;;;;;;20.95;7.72;;;;;;;13.23;100.00;100992.34;5024835;28;20053;-82
2023/08/04 01:17:57;;;;;;;13.57;7.85;;;;;;;13.14;100.00;100992.09;5024341;28;20026;-81
2023/08/04 01:20:23;;;;;;;15.10;7.63;;;;;;;13.14;100.00;100989.44;5048591;28;20029;-81
2023/08/04 01:22:49;;;;;;;13.60;7.93;;;;;;;13.11;100.00;100995.00;5049437;28;20029;-81
2023/08/04 01:25:15;;;;;;;16.80;8.70;;;;;;;13.12;100.00;100999.31;5037187;28;20112;-82
2023/08/04 01:27:47;;;;;;;23.33;8.25;;;;;;;13.13;100.00;100993.06;5023462;28;20374;-81
2023/08/04 01:30:15;;;;;;;;;;;;;;;13.28;100.00;100996.28;5048986;28;20029;-82
2023/08/04 01:32:40;;;;;;;15.98;7.95;;;;;;;13.16;100.00;100998.09;5042613;28;19916;-81
2023/08/04 01:35:07;;;;;;;22.70;8.85;;;;;;;13.12;100.00;100998.47;5059395;28;20032;-82
2023/08/04 01:37:32;;;;;;;18.17;8.57;;;;;;;13.14;100.00;101000.03;5059101;28;20025;-81
2023/08/04 01:39:58;;;;;;;18.15;9.02;;;;;;;13.14;100.00;101007.94;5059575;28;20028;-81
2023/08/04 01:42:23;;;;;;;17.77;8.75;;;;;;;13.12;100.00;101012.53;5026795;28;20021;-82
2023/08/04 01:44:48;;;;;;;12.82;8.45;;;;;;;13.09;100.00;101012.78;5041592;28;20497;-81
2023/08/04 01:47:14;;;;;;;19.90;9.07;;;;;;;13.11;100.00;101013.47;5039221;28;20037;-81
2023/08/04 01:49:39;;;;;;;20.77;9.60;;;;;;;13.12;100.00;101009.88;5031091;28;20040;-81
2023/08/04 01:52:05;;;;;;;22.02;9.95;;;;;;;13.12;100.00;101012.53;5043192;28;20024;-82
2023/08/04 01:54:30;;;;;;;15.88;9.13;;;;;;;13.12;100.00;101012.53;5051049;28;20082;-82
2023/08/04 01:56:56;;;;;;;18.30;9.40;;;;;;;13.15;100.00;101014.91;5043892;28;20028;-82
2023/08/04 01:59:21;;;;;;;16.20;9.27;;;;;;;13.17;100.00;101017.44;5025363;28;20713;-81
2023/08/04 02:01:47;;;;;;;17.27;9.25;;;;;;;13.15;100.00;101006.13;5030540;28;20053;-82
2023/08/04 02:04:12;;;;;;;18.30;9.27;;;;;;;13.15;100.00;101012.25;5033432;28;20421;-81
2023/08/04 02:06:37;;;;;;;17.35;9.38;;;;;;;13.17;100.00;101026.22;5049402;28;20060;-81
2023/08/04 02:09:03;;;;;;;20.30;9.63;;;;;;;13.16;100.00;101019.22;5036118;28;20017;-82
2023/08/04 02:11:30;;;;;;;18.63;9.35;;;;;;;13.17;100.00;101020.09;5032506;28;20044;-82
2023/08/04 02:13:55;;;;;;;17.85;8.57;;;;;;;13.14;100.00;101020.31;5031693;28;20021;-82
2023/08/04 02:16:21;;;;;;;23.52;8.73;;;;;;;13.16;100.00;101021.88;5015654;28;20018;-81
2023/08/04 02:18:46;;;;;;;17.10;9.30;;;;;;;13.13;100.00;101024.75;5039225;28;20024;-81
2023/08/04 02:21:11;;;;;;;19.00;9.32;;;;;;;13.15;100.00;101022.84;5050164;28;20025;-82
2023/08/04 02:23:37;;;;;;;20.45;9.43;;;;;;;13.17;100.00;101026.22;5050772;28;20067;-81
2023/08/04 02:26:02;;;;;;;18.50;9.10;;;;;;;13.16;100.00;101029.78;5049836;28;20029;-81
2023/08/04 02:28:28;;;;;;;17.33;8.38;;;;;;;13.16;100.00;101029.78;5049801;28;20064;-82
2023/08/04 02:30:53;;;;;;;16.00;8.63;;;;;;;13.15;100.00;101033.41;5030750;28;20041;-81
2023/08/04 02:33:18;;;;;;;20.33;9.43;;;;;;;13.15;100.00;101037.84;5029660;28;20033;-81
2023/08/04 02:35:45;;;;;;;17.83;9.25;;;;;;;13.12;100.00;101031.00;5024924;28;20048;-81
2023/08/04 02:38:11;;;;;;;21.33;9.93;;;;;;;13.11;100.00;101026.69;5034904;28;20385;-82
2023/08/04 02:40:39;;;;;;;18.30;8.98;;;;;;;13.11;100.00;101031.97;5033686;28;20029;-82
2023/08/04 02:43:04;;;;;;;16.27;8.73;;;;;;;13.10;100.00;101037.38;5032398;28;20040;-81
2023/08/04 02:45:30;;;;;;;14.60;9.23;;;;;;;13.11;100.00;101031.97;5045127;28;20044;-81
2023/08/04 02:47:55;;;;;;;17.38;9.05;;;;;;;13.09;100.00;101039.19;5034299;28;20098;-81
2023/08/04 02:50:20;;;;;;;21.40;9.05;;;;;;;13.09;100.00;101039.19;5036884;28;20525;-82
2023/08/04 02:52:46;;;;;;;18.08;9.18;;;;;;;13.10;100.00;101035.59;5024474;28;20398;-81
2023/08/04 02:55:12;;;;;;;18.10;8.75;;;;;;;13.11;100.00;101034.63;5032813;28;20017;-81
2023/08/04 02:57:38;;;;;;;15.07;8.93;;;;;;;13.14;100.00;101037.00;5051441;28;20048;-81
2023/08/04 03:00:04;;;;;;;19.95;9.02;;;;;;;13.13;100.00;101037.97;5050681;28;20049;-81
2023/08/04 03:02:29;;;;;;;13.05;8.45;;;;;;;13.12;100.00;101033.66;5051016;28;20112;-81
2023/08/04 03:04:55;;;;;;;15.05;9.20;;;;;;;13.12;100.00;101031.00;5050899;28;20152;-81
2023/08/04 03:07:20;;;;;;;14.30;8.60;;;;;;;13.12;100.00;101036.28;5043010;28;20037;-81
2023/08/04 03:09:46;;;;;;;18.48;9.27;;;;;;;13.14;100.00;101036.16;5049522;28;20029;-81
2023/08/04 03:12:11;;;;;;;17.65;8.75;;;;;;;13.14;100.00;101044.94;5027553;28;20088;-81
2023/08/04 03:14:36;;;;;;;15.85;8.90;;;;;;;13.17;100.00;101038.59;5011226;28;20022;-81
2023/08/04 03:17:02;;;;;;;16.50;9.35;;;;;;;13.16;100.00;101037.72;5011796;28;20033;-81
2023/08/04 03:19:27;;;;;;;16.65;9.20;;;;;;;13.16;100.00;101047.44;5010899;28;20117;-81
2023/08/04 03:21:52;;;;;;;20.85;9.50;;;;;;;13.15;100.00;101038.69;5011722;28;20018;-81
2023/08/04 03:24:18;;;;;;;18.27;8.95;;;;;;;13.18;100.00;101038.47;5026229;28;20152;-81
2023/08/04 03:26:43;;;;;;;16.73;8.55;;;;;;;13.20;100.00;101046.25;5026548;28;20111;-81
2023/08/04 03:29:08;;;;;;;13.32;8.18;;;;;;;13.20;100.00;101053.34;5043042;28;20029;-81
2023/08/04 03:31:34;;;;;;;20.85;9.25;;;;;;;13.19;100.00;101049.88;5046182;28;20025;-81
2023/08/04 03:33:59;;;;;;;17.42;9.30;;;;;;;13.20;100.00;101051.56;5045204;28;20086;-81
2023/08/04 03:36:24;;;;;;;14.45;8.73;;;;;;;13.19;100.00;101055.16;5044321;28;20060;-81
2023/08/04 03:38:50;;;;;;;16.15;8.80;;;;;;;13.21;100.00;101057.66;5050690;28;20055;-81
2023/08/04 03:41:15;;;;;;;12.70;8.80;;;;;;;13.22;100.00;101056.75;5029191;28;20425;-81
2023/08/04 03:43:40;;;;;;;15.05;8.43;;;;;;;13.20;100.00;101051.56;5030898;28;20025;-81
2023/08/04 03:46:06;;;;;;;18.05;8.48;;;;;;;13.21;100.00;101052.38;5014645;28;20099;-81
2023/08/04 03:48:31;;;;;;;16.98;9.20;;;;;;;13.21;100.00;101049.75;5029208;28;20040;-81
2023/08/04 03:50:56;;;;;;;14.43;8.45;;;;;;;13.16;100.00;101050.94;5045868;28;20139;-81
2023/08/04 03:53:22;;;;;;;13.13;7.85;;;;;;;13.13;100.00;101063.56;5040066;28;20056;-81
2023/08/04 03:55:47;;;;;;;15.20;8.75;;;;;;;13.15;100.00;101064.25;5047563;28;20033;-81
2023/08/04 03:58:13;;;;;;;16.75;8.68;;;;;;;13.10;100.00;101061.16;5041626;28;20033;-81
2023/08/04 04:00:38;;;;;;;12.90;8.27;;;;;;;13.07;100.00;101062.25;5042544;28;20036;-81
2023/08/04 04:03:04;;;;;;;15.43;8.55;;;;;;;13.04;100.00;101067.78;5030610;28;20484;-81
2023/08/04 04:05:30;;;;;;;17.30;8.60;;;;;;;13.04;100.00;101057.22;5045924;28;20033;-81
2023/08/04 04:07:55;;;;;;;13.93;8.15;;;;;;;13.01;100.00;101068.03;5035702;28;20063;-81
2023/08/04 04:10:21;;;;;;;20.98;9.20;;;;;;;13.01;100.00;101068.03;5037144;28;20512;-81
2023/08/04 04:12:46;;;;;;;15.38;8.80;;;;;;;12.99;100.00;101062.03;5027437;28;20103;-81
2023/08/04 04:15:12;;;;;;;17.98;8.88;;;;;;;12.96;100.00;101064.94;5034756;28;20029;-81
2023/08/04 04:17:37;;;;;;;12.40;8.13;;;;;;;12.95;100.00;101067.69;5048036;28;20485;-81
2023/08/04 04:20:03;;;;;;;13.82;8.25;;;;;;;12.95;100.00;101072.97;5018839;28;20095;-81
2023/08/04 04:22:30;;;;;;;14.10;8.07;;;;;;;12.89;100.00;101079.59;5038109;28;20493;-81
2023/08/04 04:24:55;;;;;;;11.57;8.05;;;;;;;12.85;100.00;101079.00;5037897;28;20035;-81
2023/08/04 04:27:21;;;;;;;16.17;8.05;;;;;;;12.85;100.00;101080.81;5047131;28;20020;-81
2023/08/04 04:29:46;;;;;;;16.17;8.23;;;;;;;12.82;100.00;101083.69;5046950;28;20030;-81
2023/08/04 04:32:11;;;;;;;10.52;7.90;;;;;;;12.80;100.00;101080.31;5034860;28;20029;-80
2023/08/04 04:34:37;;;;;;;15.77;8.82;;;;;;;12.78;100.00;101088.34;5036465;28;20078;-81
2023/08/04 04:37:03;;;;;;;15.07;8.32;;;;;;;12.78;100.00;101085.69;5028858;28;20036;-81
2023/08/04 04:39:28;;;;;;;17.33;8.88;;;;;;;12.79;100.00;101084.75;5040690;28;20029;-81
2023/08/04 04:41:54;;;;;;;17.00;9.35;;;;;;;12.79;100.00;101078.63;5040955;28;20057;-81
2023/08/04 04:44:19;;;;;;;18.20;9.05;;;;;;;12.82;100.00;101084.53;5027464;28;20136;-81
2023/08/04 04:46:44;;;;;;;11.90;8.70;;;;;;;12.83;100.00;101088.84;5037878;28;20037;-81
2023/08/04 04:49:10;;;;;;;16.58;9.35;;;;;;;12.83;100.00;101090.66;5035924;28;20022;-81
2023/08/04 04:51:35;;;;;;;17.45;9.63;;;;;;;12.85;100.00;101094.00;5027995;28;20389;-81
2023/08/04 04:54:00;;;;;;;17.88;9.48;;;;;;;12.88;100.00;101093.75;5027418;28;20755;-81
2023/08/04 04:56:26;;;;;;;15.85;9.40;;;;;;;12.85;100.00;101096.66;5025320;28;20104;-80
2023/08/04 04:58:51;;;;;;;18.98;10.07;;;;;;;12.93;100.00;101091.59;5029116;28;20026;-80
2023/08/04 05:01:17;;;;;;;15.90;9.82;;;;;;;12.90;100.00;101102.41;5029534;28;20538;-80
2023/08/04 05:03:43;;;;;;;16.45;9.25;;;;;;;12.97;100.00;101108.03;5028931;28;20493;-81
2023/08/04 05:06:08;;;;;;;18.92;9.38;;;;;;;13.00;100.00;101103.34;5029305;28;20033;-80
2023/08/04 05:08:33;;;;;;;17.20;9.57;;;;;;;13.05;100.00;101116.19;5049092;28;20021;-81
2023/08/04 05:10:59;;;;;;;18.23;9.50;;;;;;;13.09;100.00;101113.16;5033921;28;20478;-81
2023/08/04 05:13:24;;;;;;;14.80;9.32;;;;;;;13.17;100.00;101123.97;5027986;28;20053;-81
2023/08/04 05:15:50;;;;;;;17.77;9.95;;;;;;;13.24;100.00;101111.13;5028748;28;20036;-81
2023/08/04 05:18:16;;;;;;;23.23;9.80;;;;;;;13.31;100.00;101116.75;5029487;28;20108;-81
2023/08/04 05:20:47;;;;;;;12.77;8.77;;;;;;;13.37;100.00;101122.38;5032474;28;20021;-81
2023/08/04 05:23:14;;;;;;;17.52;9.65;;;;;;;13.43;100.00;101127.16;5035947;28;20083;-81
2023/08/04 05:25:42;;;;;;;15.73;9.73;;;;;;;13.49;100.00;101129.31;5051786;28;20056;-81
2023/08/04 05:28:23;;;;;;;16.45;9.77;;;;;;;13.60;100.00;101127.56;5033446;28;20112;-81
2023/08/04 05:30:53;;;;;;;17.13;10.52;;;;;;;13.66;100.00;101130.59;5036638;28;20021;-81
2023/08/04 05:33:19;;;;;;;25.88;11.38;;;;;;;13.75;100.00;101136.91;5052198;28;20029;-81
2023/08/04 05:35:45;;;;;;;19.70;10.63;;;;;;;13.82;100.00;101137.25;5033927;28;20551;-81
2023/08/04 05:38:11;;;;;;;17.63;10.07;;;;;;;13.91;100.00;101136.47;5044437;28;20079;-81
2023/08/04 05:40:44;;;;;;;19.08;10.48;;;;;;;13.99;100.00;101134.84;5049041;28;20029;-81
2023/08/04 05:43:10;;;;;;;;;;;;;;;14.09;100.00;101137.59;5053586;28;20083;-81
2023/08/04 05:45:37;;;;;;;19.15;9.95;;;;;;;14.13;100.00;101133.72;5033254;28;19917;-81
2023/08/04 05:48:04;;;;;;;17.63;10.05;;;;;;;14.17;100.00;101132.50;5046861;28;20037;-80
2023/08/04 05:50:29;;;;;;;18.90;10.02;;;;;;;14.27;100.00;101140.47;5032932;28;20317;-80
2023/08/04 05:52:55;;;;;;;19.27;10.18;;;;;;;14.33;100.00;101138.16;5032936;28;20040;-81
2023/08/04 05:55:20;;;;;;;16.58;10.63;;;;;;;14.40;100.00;101147.25;5032430;28;20435;-80
2023/08/04 05:57:46;;;;;;;16.30;10.00;;;;;;;14.48;100.00;101148.44;5031860;28;20021;-81
2023/08/04 06:00:11;;;;;;;20.90;10.95;;;;;;;14.54;100.00;101155.88;5036969;28;20025;-81
2023/08/04 06:02:41;;;;;;;14.75;10.02;;;;;;;14.60;100.00;101150.03;5031075;28;20480;-80
2023/08/04 06:05:10;;;;;;;15.07;9.73;;;;;;;14.72;100.00;101143.69;5047052;28;20033;-80
2023/08/04 06:07:35;;;;;;;18.25;10.52;;;;;;;14.82;100.00;101149.03;5031897;28;20021;-80
2023/08/04 06:10:01;;;;;;;16.92;10.40;;;;;;;14.92;100.00;101155.22;5031437;28;20304;-80
2023/08/04 06:12:27;;;;;;;17.17;10.30;;;;;;;15.03;100.00;101158.59;5030771;28;20595;-81
2023/08/04 06:14:52;;;;;;;16.38;10.32;;;;;;;15.07;100.00;101153.00;5030623;28;20033;-80
2023/08/04 06:17:17;;;;;;;15.55;9.88;;;;;;;15.14;100.00;101154.97;5051299;28;20025;-81
2023/08/04 06:19:45;;;;;;;15.93;10.02;;;;;;;15.26;100.00;101163.69;5031818;28;20034;-81
2023/08/04 06:22:13;;;;;;;15.63;10.05;;;;;;;15.42;100.00;101158.69;5024087;28;20028;-80
2023/08/04 06:24:38;;;;;;;17.33;9.38;;;;;;;15.56;100.00;101157.44;5071635;28;20029;-81
2023/08/04 06:27:04;;;;;;;14.35;8.70;;;;;;;15.70;100.00;101161.56;5037597;28;20066;-81
2023/08/04 06:29:30;;;;;;;15.13;8.48;;;;;;;15.89;100.00;101172.16;5049425;28;20060;-80
2023/08/04 06:31:55;;;;;;;17.17;8.13;;;;;;;16.05;100.00;101169.78;5051018;28;20055;-81
2023/08/04 06:34:20;;;;;;;13.05;7.95;;;;;;;16.20;100.00;101184.31;5043921;28;20071;-81
2023/08/04 06:36:47;;;;;;;13.25;7.38;;;;;;;16.29;100.00;101183.44;5030300;28;20052;-81
2023/08/04 06:39:12;;;;;;;14.93;7.57;;;;;;;16.40;100.00;101186.91;5027819;28;20083;-81
2023/08/04 06:41:38;;;;;;;11.00;7.03;;;;;;;16.45;100.00;101195.31;5029320;28;20394;-81
2023/08/04 06:44:03;;;;;;;14.23;7.72;;;;;;;16.57;100.00;101195.00;5015405;28;20075;-80
2023/08/04 06:46:29;;;;;;;14.77;7.85;;;;;;;16.65;100.00;101193.44;5036166;28;20030;-81
2023/08/04 06:48:54;;;;;;;12.82;7.63;;;;;;;16.78;100.00;101194.81;5031736;28;20079;-81
2023/08/04 06:51:19;;;;;;;13.52;7.38;;;;;;;16.84;100.00;101199.59;5036109;28;20038;-81
2023/08/04 06:53:44;;;;;;;12.07;7.30;;;;;;;17.05;100.00;101198.50;5033677;28;20034;-81
2023/08/04 06:56:10;;;;;;;12.40;7.50;;;;;;;17.14;100.00;101202.94;5051844;28;20025;-81
2023/08/04 06:58:35;;;;;;;15.23;6.70;;;;;;;17.16;100.00;101207.13;5051723;28;20044;-81
2023/08/04 07:01:01;;;;;;;14.55;6.85;;;;;;;17.22;100.00;101205.72;5051806;28;20771;-81
2023/08/04 07:03:26;;;;;;;10.98;6.78;;;;;;;17.20;100.00;101210.31;5040092;28;20033;-81
2023/08/04 07:05:51;;;;;;;11.45;6.85;;;;;;;17.28;100.00;101206.94;5024006;28;20025;-81
2023/08/04 07:08:16;;;;;;;11.95;6.35;;;;;;;17.32;100.00;101206.50;5030398;28;20030;-81
2023/08/04 07:10:42;;;;;;;10.57;6.68;;;;;;;17.36;100.00;101207.03;5031662;28;20116;-81
2023/08/04 07:13:08;;;;;;;11.18;6.70;;;;;;;17.42;100.00;101215.25;5029870;28;20033;-81
2023/08/04 07:15:33;;;;;;;11.20;7.40;;;;;;;17.50;100.00;101209.19;5025096;28;20026;-81
2023/08/04 07:17:58;;;;;;;10.85;6.68;;;;;;;17.59;100.00;101212.75;5020684;28;20079;-81
2023/08/04 07:20:24;;;;;;;13.00;7.45;;;;;;;17.67;100.00;101215.56;5039026;28;20024;-81
2023/08/04 07:22:50;;;;;;;13.57;6.78;;;;;;;17.90;100.00;101215.94;5037876;28;20465;-81
2023/08/04 07:25:15;;;;;;;12.40;6.50;;;;;;;18.20;100.00;101212.06;5031547;28;20022;-81
2023/08/04 07:27:42;;;;;;;13.90;6.50;;;;;;;18.50;100.00;101214.31;5032770;28;20022;-81
2023/08/04 07:30:08;;;;;;;10.10;5.47;;;;;;;18.58;97.19;101218.84;5051099;28;20020;-81
2023/08/04 07:32:33;;;;;;;10.48;5.03;;;;;;;18.45;97.07;101221.94;5050342;28;20029;-81
2023/08/04 07:34:58;;;;;;;8.13;4.22;;;;;;;18.42;96.42;101224.91;5050422;28;20025;-81
2023/08/04 07:37:24;;;;;;;9.95;4.82;;;;;;;18.40;97.85;101224.19;5037514;28;20377;-81
2023/08/04 07:39:50;;;;;;;7.75;4.85;;;;;;;18.36;96.42;101222.84;5010066;28;20060;-80
2023/08/04 07:42:15;;;;;;;10.18;5.05;;;;;;;18.25;95.81;101225.75;5010719;28;20407;-80
2023/08/04 07:44:43;;;;;;;6.80;4.78;;;;;;;18.19;96.45;101229.03;5010627;28;20077;-80
2023/08/04 07:47:09;;;;;;;10.45;5.05;;;;;;;18.09;97.70;101229.97;5009826;28;20034;-81
2023/08/04 07:49:34;;;;;;;8.82;4.68;;;;;;;17.98;97.50;101234.66;5010666;28;20506;-81
2023/08/04 07:52:00;;;;;;;7.55;4.00;;;;;;;18.00;99.19;101238.84;5010436;28;20041;-80
2023/08/04 07:54:25;;;;;;;9.13;4.10;;;;;;;18.02;99.92;101231.56;5012977;28;20028;-80
2023/08/04 07:56:50;;;;;;;9.70;4.10;;;;;;;17.99;98.28;101236.34;5029904;28;20018;-80
2023/08/04 07:59:16;;;;;;;9.18;4.03;;;;;;;18.05;98.82;101233.94;5029972;28;20029;-81
2023/08/04 08:01:41;;;;;;;7.15;4.35;;;;;;;17.97;98.88;101239.16;5029708;28;20022;-80
2023/08/04 08:04:09;;;;;;;8.85;4.30;;;;;;;18.01;100.00;101242.34;5030389;28;20075;-81
2023/08/04 08:06:36;;;;;;;8.05;4.00;;;;;;;18.01;98.06;101245.88;5030438;28;20429;-80
2023/08/04 08:09:01;;;;;;;6.32;3.70;;;;;;;18.12;96.17;101245.63;5029930;28;20551;-81
2023/08/04 08:11:27;;;;;;;7.75;3.60;;;;;;;18.16;95.25;101244.34;5021851;28;20862;-81
2023/08/04 08:13:52;;;;;;;10.93;4.10;;;;;;;18.21;96.09;101243.03;5029461;28;20025;-81
2023/08/04 08:16:17;;;;;;;7.80;3.35;;;;;;;18.35;92.56;101248.66;5029753;28;20088;-80
2023/08/04 08:18:43;;;;;;;9.40;3.30;;;;;;;18.41;93.47;101236.53;5030112;28;20052;-80
2023/08/04 08:21:09;;;;;;;6.35;2.75;;;;;;;18.71;93.70;101243.28;5030375;28;20029;-80
2023/08/04 08:23:36;;;;;;;8.30;2.97;;;;;;;18.82;91.66;101251.03;5061994;28;20026;-80
2023/08/04 08:26:03;;;;;;;6.30;2.45;;;;;;;19.21;87.95;101255.91;5030207;28;20292;-80
2023/08/04 08:28:28;;;;;;;7.50;2.95;;;;;;;19.53;85.98;101261.41;5038343;28;20029;-80
2023/08/04 08:30:54;;;;;;;6.45;3.40;;;;;;;19.53;86.79;101256.06;5020921;28;20060;-80
2023/08/04 08:33:20;;;;;;;6.38;3.10;;;;;;;19.59;84.76;101265.28;5010333;28;20123;-80
2023/08/04 08:35:45;;;;;;;6.20;2.42;;;;;;;19.64;85.71;101257.63;5010366;28;20057;-80
2023/08/04 08:38:11;;;;;;;5.70;2.78;;;;;;;19.60;82.60;101262.44;5009736;28;20025;-80
2023/08/04 08:40:36;;;;;;;5.15;2.30;;;;;;;19.50;83.84;101264.38;5010642;28;20026;-80
2023/08/04 08:43:02;;;;;;;6.18;3.15;;;;;;;19.32;86.47;101267.16;5009170;28;20026;-79
2023/08/04 08:45:28;;;;;;;6.30;3.15;;;;;;;19.30;86.97;101266.47;5011074;28;20054;-78
2023/08/04 08:47:55;;;;;;;7.45;3.20;;;;;;;19.19;88.94;101273.91;5016885;28;20183;-79
2023/08/04 08:50:26;;;;;;;9.20;3.42;;;;;;;19.15;88.41;101283.22;5027198;28;20026;-79
2023/08/04 08:53:06;;;;;;;5.60;3.10;;;;;;;19.16;89.15;101280.41;5028687;28;20485;-79
2023/08/04 08:55:32;;;;;;;9.48;3.10;;;;;;;19.09;87.03;101282.03;5047952;28;20477;-79
2023/08/04 08:58:00;;;;;;;5.20;2.50;;;;;;;19.35;87.02;101285.50;5048354;28;20024;-79
2023/08/04 09:00:27;;;;;;;5.85;3.20;;;;;;;19.56;83.55;101278.94;5048871;28;20048;-79
2023/08/04 09:02:52;;;;;;;5.38;2.67;;;;;;;19.71;82.37;101280.84;5034369;28;20091;-79
2023/08/04 09:05:18;;;;;;;3.55;2.50;;;;;;;19.87;80.66;101274.72;5028404;28;20111;-79
2023/08/04 09:07:43;;;;;;;3.42;2.40;;;;;;;19.88;80.62;101280.88;5028757;28;20028;-79
2023/08/04 09:10:09;;;;;;;5.13;2.60;;;;;;;20.35;84.23;101273.94;5029132;28;20466;-79
2023/08/04 09:12:35;;;;;;;4.97;3.03;;;;;;;20.67;80.84;101290.19;5028765;28;20710;-79
2023/08/04 09:15:03;;;;;;;8.02;3.00;;;;;;;20.34;80.64;101284.78;5028930;28;20047;-79
2023/08/04 09:17:33;;;;;;;8.32;2.83;;;;;;;19.93;83.00;101295.41;5029457;28;20021;-79
2023/08/04 09:20:01;;;;;;;5.53;2.83;;;;;;;19.66;85.17;101301.88;5020596;28;20390;-79
2023/08/04 09:22:27;;;;;;;5.32;2.38;;;;;;;19.42;87.73;101299.88;5029624;28;20167;-80
2023/08/04 09:24:58;;;;;;;6.63;2.50;;;;;;;19.29;88.56;101296.81;5029531;28;20108;-80
2023/08/04 09:27:42;;;;;;;6.43;2.50;;;;;;;19.22;91.35;101300.28;5028999;28;20367;-80
2023/08/04 09:30:09;;;;;;;4.93;1.90;;;;;;;19.06;89.43;101301.84;5008879;28;20463;-80
2023/08/04 09:32:46;;;;;;;5.53;1.92;;;;;;;19.04;88.54;101293.19;5009600;28;20029;-80
2023/08/04 09:35:12;;;;;;;5.40;1.95;;;;;;;19.14;90.41;101302.88;5009984;28;20025;-80
2023/08/04 09:37:39;;;;;;;4.18;2.20;;;;;;;19.21;90.94;101293.25;5008752;28;20033;-80
2023/08/04 09:40:13;;;;;;;5.38;2.20;;;;;;;19.24;91.28;101298.31;5025571;28;20021;-80
2023/08/04 09:42:40;;;;;;;3.67;2.13;;;;;;;19.48;91.11;101300.25;5029665;28;20044;-79
2023/08/04 09:45:06;;;;;;;5.95;2.30;;;;;;;19.91;89.72;101293.91;5029592;28;20061;-81
2023/08/04 09:47:31;;;;;;;5.38;2.15;;;;;;;19.92;84.83;101301.75;5028764;28;20056;-80
2023/08/04 09:49:57;;;;;;;3.83;1.73;;;;;;;19.78;83.48;101305.06;5027941;28;20029;-80
2023/08/04 09:52:30;;;;;;;4.63;1.80;;;;;;;19.84;85.89;101307.09;5029345;28;20060;-80
2023/08/04 09:54:56;;;;;;;5.05;1.90;;;;;;;19.79;86.52;101300.56;5031542;28;20033;-80
2023/08/04 09:57:23;;;;;;;4.75;1.98;;;;;;;19.97;86.73;101295.91;5028652;28;20052;-79
2023/08/04 09:59:49;;;;;;;3.85;1.58;;;;;;;20.08;84.06;101306.31;5029156;28;20034;-80
2023/08/04 10:02:19;;;;;;;7.10;2.05;;;;;;;19.98;83.24;101303.78;5028933;28;20026;-79
2023/08/04 10:04:50;;;;;;;5.38;2.08;;;;;;;19.97;85.78;101306.59;5029199;28;20029;-79
2023/08/04 10:07:19;;;;;;;5.72;1.83;;;;;;;19.83;83.65;101305.41;5032510;28;20033;-79
2023/08/04 10:09:46;;;;;;;4.10;1.52;;;;;;;19.61;83.43;101311.31;5032598;28;20032;-80
2023/08/04 10:12:13;;;;;;;4.05;1.50;;;;;;;19.25;86.80;101316.81;5023019;28;20021;-80
2023/08/04 10:14:38;;;;;;;4.57;1.48;;;;;;;19.17;90.67;101322.09;5030480;28;20025;-81
2023/08/04 10:17:05;;;;;;;2.67;1.40;;;;;;;18.95;91.59;101317.28;5032100;28;20059;-80
2023/08/04 10:19:30;;;;;;;5.13;1.95;;;;;;;18.86;93.87;101316.41;5031856;28;20087;-80
2023/08/04 10:22:04;;;;;;;3.05;1.35;;;;;;;18.94;94.20;101315.63;5029956;28;20017;-80
2023/08/04 10:24:30;;;;;;;3.10;1.50;;;;;;;18.99;94.60;101310.66;5031969;28;20126;-81
2023/08/04 10:26:55;;;;;;;4.35;2.10;;;;;;;19.28;96.49;101307.66;5028379;28;20053;-81
2023/08/04 10:29:31;;;;;;;3.95;1.90;;;;;;;19.28;97.33;101305.00;5043787;28;20049;-82
2023/08/04 10:31:57;;;;;;;5.05;1.90;;;;;;;19.88;94.17;101303.09;5051725;28;20119;-81
2023/08/04 10:34:31;;;;;;;7.28;2.25;;;;;;;20.36;90.85;101306.84;5051799;28;20025;-81
2023/08/04 10:37:06;;;;;;;8.27;1.90;;;;;;;20.67;87.95;101306.22;5051309;28;20024;-80
2023/08/04 10:39:41;;;;;;;6.72;2.47;;;;;;;21.14;87.31;101311.66;5050068;28;20139;-80
2023/08/04 10:42:13;;;;;;;6.45;1.63;;;;;;;21.21;81.34;101313.50;5052058;28;20477;-79
2023/08/04 10:45:05;;;;;;;5.03;1.48;;;;;;;21.32;79.84;101319.53;5051090;28;20060;-79
2023/08/04 10:47:33;;;;;;;4.23;1.47;;;;;;;21.29;81.11;101322.56;5026966;28;20044;-81
2023/08/04 10:49:59;;;;;;;5.20;1.80;;;;;;;21.19;80.43;101326.19;5031197;28;20283;-81
2023/08/04 10:52:25;;;;;;;5.32;1.67;;;;;;;21.11;82.02;101326.22;5032138;28;20033;-81
2023/08/04 10:54:52;;;;;;;4.22;1.58;;;;;;;20.98;80.77;101323.25;5045097;28;20021;-80
2023/08/04 10:57:24;;;;;;;5.28;1.42;;;;;;;20.77;79.14;101330.94;5051243;28;20048;-81
2023/08/04 10:59:50;;;;;;;;;;;;;;;21.06;84.44;101338.44;5050665;28;20021;-80
2023/08/04 11:02:17;;;;;;;5.18;1.90;;;;;;;20.87;82.28;101327.13;5042284;28;20011;-81
2023/08/04 11:04:44;;;;;;;2.97;1.83;;;;;;;20.89;81.77;101329.63;5027763;28;20036;-81
2023/08/04 11:07:10;;;;;;;4.38;2.00;;;;;;;21.15;81.17;101335.59;5031625;28;20030;-80
2023/08/04 11:09:35;;;;;;;7.85;1.85;;;;;;;20.96;77.52;101335.97;5031968;28;20021;-79
2023/08/04 11:12:03;;;;;;;4.13;1.60;;;;;;;20.78;79.27;101344.16;5030847;28;20021;-78